Terminal Aerodrome Forecast
Issued by NWS Paducah, KY

Home | Current Version | Previous Version | Text Only | Print | Product List | Glossary On
Versions: 1 2 3 4 5 6 7 8 9 10 11 12 13 14 15 16 17 18
501
FTUS43 KPAH 151120
TAFEVV
TAF
KEVV 151120Z 1512/1612 00000KT P6SM SCT025
      TEMPO 1512/1514 BKN025
     FM151500 23004KT P6SM BKN040
     FM160000 VRB02KT P6SM SCT100 BKN250=

USA.gov is the U.S. government's official web portal to all federal, state and local government web resources and services.